Time;durP1;ratioP1;P1;durP2;ratioP2;P2;SDS_P1;SDS_P2;PMS_P1;PMS_P2;Temp;Humidity;BMP_temperature;BMP_pressure;BME280_temperature;BME280_humidity;BME280_pressure;Samples;Min_cycle;Max_cycle;Signal;HPM_P1;HPM_P2
2023/07/17 00:00:58;;;;;;;56.70;2.40;;;;;;;;;;4994804;28;20451;-70
2023/07/17 00:03:26;;;;;;;57.60;2.30;;;;;;;;;;4995074;28;20458;-69
2023/07/17 00:05:54;;;;;;;56.97;2.17;;;;;;;;;;4995214;28;20446;-70
2023/07/17 00:08:21;;;;;;;56.90;2.30;;;;;;;;;;4995218;28;20466;-70
2023/07/17 00:10:48;;;;;;;57.10;2.07;;;;;;;;;;4994791;28;20826;-69
2023/07/17 00:13:15;;;;;;;56.97;2.40;;;;;;;;;;4995225;28;20461;-70
2023/07/17 00:15:42;;;;;;;57.37;2.40;;;;;;;;;;4994754;28;20486;-70
2023/07/17 00:18:10;;;;;;;56.67;2.20;;;;;;;;;;4994844;28;20963;-70
2023/07/17 00:20:37;;;;;;;56.90;2.30;;;;;;;;;;4994688;28;20498;-70
2023/07/17 00:23:05;;;;;;;56.90;2.20;;;;;;;;;;4994856;28;20471;-69
2023/07/17 00:25:32;;;;;;;56.97;2.20;;;;;;;;;;4994573;28;20455;-70
2023/07/17 00:27:59;;;;;;;57.40;2.20;;;;;;;;;;4994756;28;20837;-70
2023/07/17 00:30:26;;;;;;;58.80;3.00;;;;;;;;;;4994278;28;20455;-70
2023/07/17 00:32:54;;;;;;;57.50;2.80;;;;;;;;;;4994707;28;20471;-70
2023/07/17 00:35:21;;;;;;;56.60;2.10;;;;;;;;;;4994480;28;20489;-70
2023/07/17 00:37:48;;;;;;;56.90;2.20;;;;;;;;;;4994600;28;20450;-69
2023/07/17 00:40:16;;;;;;;57.07;2.30;;;;;;;;;;4994179;28;20451;-70
2023/07/17 00:42:43;;;;;;;57.00;2.30;;;;;;;;;;4994807;28;20472;-70
2023/07/17 00:45:11;;;;;;;56.87;2.30;;;;;;;;;;4994275;28;20635;-70
2023/07/17 00:47:38;;;;;;;56.80;2.10;;;;;;;;;;4994405;28;20453;-69
2023/07/17 00:50:06;;;;;;;57.20;2.50;;;;;;;;;;4994121;28;20461;-70
2023/07/17 00:52:33;;;;;;;57.00;2.20;;;;;;;;;;4994208;28;20894;-69
2023/07/17 00:55:01;;;;;;;57.17;2.37;;;;;;;;;;4994031;28;20490;-70
2023/07/17 00:57:29;;;;;;;56.87;2.30;;;;;;;;;;4993859;28;20462;-70
2023/07/17 00:59:56;;;;;;;57.40;2.67;;;;;;;;;;4994181;28;20462;-70
2023/07/17 01:02:24;;;;;;;56.97;2.40;;;;;;;;;;4993923;28;20486;-70
2023/07/17 01:04:51;;;;;;;56.90;2.23;;;;;;;;;;4994090;28;20450;-70
2023/07/17 01:07:18;;;;;;;56.70;2.50;;;;;;;;;;4993125;28;20459;-70
2023/07/17 01:09:45;;;;;;;57.00;2.20;;;;;;;;;;4993918;28;20542;-69
2023/07/17 01:12:12;;;;;;;56.73;2.47;;;;;;;;;;4993378;28;20475;-70
2023/07/17 01:14:41;;;;;;;57.50;2.40;;;;;;;;;;4993949;28;20455;-69
2023/07/17 01:17:08;;;;;;;56.97;2.60;;;;;;;;;;4993930;28;20943;-69
2023/07/17 01:19:35;;;;;;;56.90;2.40;;;;;;;;;;4993778;28;20501;-69
2023/07/17 01:22:03;;;;;;;56.87;2.13;;;;;;;;;;4993268;28;20477;-70
2023/07/17 01:24:31;;;;;;;56.90;2.40;;;;;;;;;;4993537;28;20455;-69
2023/07/17 01:26:58;;;;;;;57.00;2.50;;;;;;;;;;4993742;28;20447;-69
2023/07/17 01:29:25;;;;;;;57.00;2.50;;;;;;;;;;4993753;28;20447;-69
2023/07/17 01:31:52;;;;;;;56.60;2.20;;;;;;;;;;4993064;28;20479;-70
2023/07/17 01:34:19;;;;;;;57.10;2.30;;;;;;;;;;4993881;28;20447;-70
2023/07/17 01:36:46;;;;;;;56.73;2.30;;;;;;;;;;4993301;28;20496;-69
2023/07/17 01:39:14;;;;;;;58.00;2.73;;;;;;;;;;4993260;28;20954;-70
2023/07/17 01:41:42;;;;;;;56.70;2.40;;;;;;;;;;4993412;28;20475;-71
2023/07/17 01:44:09;;;;;;;57.30;2.43;;;;;;;;;;4991832;28;20466;-70
2023/07/17 01:46:37;;;;;;;56.83;2.13;;;;;;;;;;4993119;28;20956;-71
2023/07/17 01:49:05;;;;;;;56.87;2.43;;;;;;;;;;4993015;28;20530;-71
2023/07/17 01:51:32;;;;;;;57.07;2.63;;;;;;;;;;4992708;28;20533;-70
2023/07/17 01:53:59;;;;;;;57.20;2.50;;;;;;;;;;4992206;28;20800;-70
2023/07/17 01:56:26;;;;;;;56.97;2.60;;;;;;;;;;4993008;28;20497;-70
2023/07/17 01:58:55;;;;;;;56.80;2.30;;;;;;;;;;4992913;28;20454;-71
2023/07/17 02:01:22;;;;;;;56.87;2.33;;;;;;;;;;4992490;28;20881;-70
2023/07/17 02:03:49;;;;;;;57.60;2.67;;;;;;;;;;4992770;28;20458;-70
2023/07/17 02:06:18;;;;;;;57.83;2.50;;;;;;;;;;4992928;28;20453;-70
2023/07/17 02:08:45;;;;;;;57.00;3.13;;;;;;;;;;4992868;28;20462;-71
2023/07/17 02:11:13;;;;;;;57.20;3.30;;;;;;;;;;4992292;28;20475;-70
2023/07/17 02:13:40;;;;;;;56.93;2.33;;;;;;;;;;4992732;28;20450;-70
2023/07/17 02:16:08;;;;;;;56.73;2.13;;;;;;;;;;4992388;28;20487;-70
2023/07/17 02:18:35;;;;;;;56.63;2.20;;;;;;;;;;4992900;28;20799;-70
2023/07/17 02:21:04;;;;;;;56.63;2.50;;;;;;;;;;4992366;28;20455;-70
2023/07/17 02:23:31;;;;;;;56.90;2.43;;;;;;;;;;4992633;28;20451;-70
2023/07/17 02:25:58;;;;;;;56.90;2.30;;;;;;;;;;4992541;28;20477;-71
2023/07/17 02:28:25;;;;;;;57.07;2.93;;;;;;;;;;4992483;28;20450;-70
2023/07/17 02:30:52;;;;;;;56.77;2.60;;;;;;;;;;4991889;28;20458;-70
2023/07/17 02:33:21;;;;;;;57.00;2.20;;;;;;;;;;4992490;28;20446;-70
2023/07/17 02:35:48;;;;;;;57.17;2.53;;;;;;;;;;4992276;28;20483;-70
2023/07/17 02:38:15;;;;;;;56.90;2.33;;;;;;;;;;4992205;28;20981;-70
2023/07/17 02:40:42;;;;;;;56.97;2.27;;;;;;;;;;4992020;28;20455;-70
2023/07/17 02:43:09;;;;;;;56.80;2.40;;;;;;;;;;4992014;28;20485;-70
2023/07/17 02:45:36;;;;;;;56.87;2.10;;;;;;;;;;4991891;28;20546;-70
2023/07/17 02:48:04;;;;;;;57.10;2.40;;;;;;;;;;4992142;28;20454;-70
2023/07/17 02:50:32;;;;;;;56.87;2.60;;;;;;;;;;4991932;28;20501;-70
2023/07/17 02:52:59;;;;;;;57.17;2.57;;;;;;;;;;4991962;28;20479;-70
2023/07/17 02:55:27;;;;;;;56.57;2.30;;;;;;;;;;4991790;28;20461;-70
2023/07/17 02:58:04;;;;;;;56.87;2.30;;;;;;;;;;4991891;28;20454;-70
2023/07/17 03:00:31;;;;;;;56.77;2.40;;;;;;;;;;4990544;28;20504;-70
2023/07/17 03:02:58;;;;;;;57.87;2.50;;;;;;;;;;4992002;28;20470;-70
2023/07/17 03:05:25;;;;;;;57.50;2.60;;;;;;;;;;4991954;28;20454;-71
2023/07/17 03:07:54;;;;;;;56.87;2.33;;;;;;;;;;4991942;28;20447;-70
2023/07/17 03:10:21;;;;;;;56.90;2.20;;;;;;;;;;4991538;28;20943;-70
2023/07/17 03:12:48;;;;;;;56.90;2.40;;;;;;;;;;4991669;28;20474;-70
2023/07/17 03:15:15;;;;;;;57.07;2.47;;;;;;;;;;4991747;28;20827;-70
2023/07/17 03:17:43;;;;;;;56.90;2.67;;;;;;;;;;4991929;28;20439;-70
2023/07/17 03:20:10;;;;;;;56.97;2.30;;;;;;;;;;4991624;28;20567;-71
2023/07/17 03:22:37;;;;;;;56.90;2.20;;;;;;;;;;4991809;28;20463;-70
2023/07/17 03:25:07;;;;;;;57.27;2.50;;;;;;;;;;4991641;28;20447;-70
2023/07/17 03:27:34;;;;;;;56.63;2.30;;;;;;;;;;4991538;28;20457;-70
2023/07/17 03:30:01;;;;;;;57.07;2.60;;;;;;;;;;4992137;28;20449;-70
2023/07/17 03:32:31;;;;;;;57.10;2.30;;;;;;;;;;4995751;28;20557;-70
2023/07/17 03:34:58;;;;;;;56.87;2.40;;;;;;;;;;4995755;28;20442;-70
2023/07/17 03:37:25;;;;;;;56.87;2.30;;;;;;;;;;4995497;28;21024;-70
2023/07/17 03:39:52;;;;;;;57.10;2.90;;;;;;;;;;4995412;28;20455;-71
2023/07/17 03:42:21;;;;;;;57.07;2.70;;;;;;;;;;4995426;28;20467;-70
2023/07/17 03:44:48;;;;;;;56.77;2.60;;;;;;;;;;4995443;28;20553;-70
2023/07/17 03:47:16;;;;;;;56.87;2.60;;;;;;;;;;4995498;28;20458;-70
2023/07/17 03:49:43;;;;;;;56.83;2.30;;;;;;;;;;4995609;28;20456;-71
2023/07/17 03:52:10;;;;;;;57.40;2.57;;;;;;;;;;4995027;28;20501;-70
2023/07/17 03:54:37;;;;;;;56.73;2.47;;;;;;;;;;4995338;28;20450;-70
2023/07/17 03:57:04;;;;;;;56.77;2.37;;;;;;;;;;4995070;28;20491;-69
2023/07/17 03:59:47;;;;;;;57.30;3.20;;;;;;;;;;4995250;28;20453;-70
2023/07/17 04:02:14;;;;;;;57.10;2.53;;;;;;;;;;4994845;28;21010;-70
2023/07/17 04:04:41;;;;;;;56.80;2.20;;;;;;;;;;4995148;28;20458;-70
2023/07/17 04:07:08;;;;;;;56.87;2.40;;;;;;;;;;4994970;28;20443;-70
2023/07/17 04:09:35;;;;;;;57.23;2.90;;;;;;;;;;4995450;28;20458;-70
2023/07/17 04:12:03;;;;;;;57.20;2.40;;;;;;;;;;4994556;28;20482;-70
2023/07/17 04:14:30;;;;;;;57.20;3.27;;;;;;;;;;4995073;28;20451;-70
2023/07/17 04:16:59;;;;;;;57.43;2.83;;;;;;;;;;4995095;28;20483;-70
2023/07/17 04:19:26;;;;;;;57.47;2.83;;;;;;;;;;4994604;28;20455;-70
2023/07/17 04:21:53;;;;;;;56.87;2.40;;;;;;;;;;4994448;28;20470;-70
2023/07/17 04:24:20;;;;;;;56.93;3.20;;;;;;;;;;4994913;28;20919;-70
2023/07/17 04:26:48;;;;;;;56.87;2.30;;;;;;;;;;4994737;28;20451;-71
2023/07/17 04:29:15;;;;;;;56.90;2.50;;;;;;;;;;4994757;28;20454;-70
2023/07/17 04:31:42;;;;;;;56.87;2.30;;;;;;;;;;4994649;28;20563;-70
2023/07/17 04:34:10;;;;;;;56.73;2.80;;;;;;;;;;4994908;28;20461;-70
2023/07/17 04:36:37;;;;;;;58.57;3.17;;;;;;;;;;4994329;28;21035;-70
2023/07/17 04:39:05;;;;;;;56.53;2.50;;;;;;;;;;4994654;28;20455;-70
2023/07/17 04:41:32;;;;;;;58.60;3.70;;;;;;;;;;4993211;28;20471;-70
2023/07/17 04:43:59;;;;;;;56.83;2.33;;;;;;;;;;4993803;28;20974;-70
2023/07/17 04:46:26;;;;;;;56.97;2.30;;;;;;;;;;4994216;28;20454;-70
2023/07/17 04:48:53;;;;;;;56.90;2.70;;;;;;;;;;4988254;28;20533;-70
2023/07/17 04:51:22;;;;;;;56.77;2.40;;;;;;;;;;4993886;28;20478;-70
2023/07/17 04:53:49;;;;;;;56.80;2.60;;;;;;;;;;4994311;28;20812;-70
2023/07/17 04:56:16;;;;;;;56.80;2.40;;;;;;;;;;4994053;28;20486;-70
2023/07/17 04:58:43;;;;;;;56.77;2.50;;;;;;;;;;4994030;28;20451;-70
2023/07/17 05:01:10;;;;;;;56.77;2.30;;;;;;;;;;4993510;28;20855;-71
2023/07/17 05:03:37;;;;;;;57.00;2.30;;;;;;;;;;4994317;28;20486;-70
2023/07/17 05:06:04;;;;;;;56.77;2.50;;;;;;;;;;4990110;28;20458;-70
2023/07/17 05:08:33;;;;;;;56.80;2.40;;;;;;;;;;4993606;28;20459;-70
2023/07/17 05:11:02;;;;;;;56.87;2.50;;;;;;;;;;4993288;28;20454;-70
2023/07/17 05:13:29;;;;;;;56.63;2.40;;;;;;;;;;4993752;28;20474;-70
2023/07/17 05:15:56;;;;;;;57.27;2.93;;;;;;;;;;4993574;28;20458;-70
2023/07/17 05:18:24;;;;;;;57.13;2.93;;;;;;;;;;4994132;28;20992;-70
2023/07/17 05:20:52;;;;;;;56.90;2.80;;;;;;;;;;4993717;28;20479;-70
2023/07/17 05:23:20;;;;;;;57.37;3.07;;;;;;;;;;4993761;28;20463;-70
2023/07/17 05:25:54;;;;;;;58.80;2.50;;;;;;;;;;4993669;28;20748;-70
2023/07/17 05:28:21;;;;;;;56.80;2.17;;;;;;;;;;4993466;28;20446;-70
2023/07/17 05:30:51;;;;;;;59.73;2.47;;;;;;;;;;4993443;28;20955;-70
2023/07/17 05:33:18;;;;;;;56.57;2.13;;;;;;;;;;4993636;28;20478;-70
2023/07/17 05:35:45;;;;;;;57.30;2.20;;;;;;;;;;4993515;28;20458;-70
2023/07/17 05:38:13;;;;;;;57.00;2.40;;;;;;;;;;4993336;28;20558;-70
2023/07/17 05:40:40;;;;;;;57.30;2.10;;;;;;;;;;4992898;28;20447;-70
2023/07/17 05:43:09;;;;;;;56.87;3.90;;;;;;;;;;4993421;28;20502;-70
2023/07/17 05:45:36;;;;;;;56.80;2.13;;;;;;;;;;4993459;28;20463;-70
2023/07/17 05:48:03;;;;;;;56.70;2.60;;;;;;;;;;4993236;28;20451;-70
2023/07/17 05:50:30;;;;;;;56.80;2.30;;;;;;;;;;4993097;28;20486;-70
2023/07/17 05:52:58;;;;;;;56.47;2.10;;;;;;;;;;4992744;28;20846;-70
2023/07/17 05:55:25;;;;;;;57.10;2.20;;;;;;;;;;4993012;28;20473;-70
2023/07/17 05:57:52;;;;;;;59.17;3.80;;;;;;;;;;4993235;28;20486;-70
2023/07/17 06:00:21;;;;;;;57.00;2.57;;;;;;;;;;4993054;28;20985;-70
2023/07/17 06:02:48;;;;;;;56.50;2.40;;;;;;;;;;4993470;28;20477;-70
2023/07/17 06:05:15;;;;;;;57.30;2.33;;;;;;;;;;4993034;28;20451;-70
2023/07/17 06:07:42;;;;;;;56.60;2.30;;;;;;;;;;4992820;28;20447;-71
2023/07/17 06:10:10;;;;;;;56.47;2.10;;;;;;;;;;4992592;28;20485;-71
2023/07/17 06:12:37;;;;;;;56.60;2.10;;;;;;;;;;4992937;28;20475;-70
2023/07/17 06:15:04;;;;;;;56.37;1.90;;;;;;;;;;4992842;28;20462;-70
2023/07/17 06:17:33;;;;;;;56.90;2.20;;;;;;;;;;4992607;28;20478;-71
2023/07/17 06:20:00;;;;;;;56.40;2.33;;;;;;;;;;4992658;28;20451;-71
2023/07/17 06:22:27;;;;;;;56.33;1.70;;;;;;;;;;4992500;28;20479;-70
2023/07/17 06:24:54;;;;;;;55.97;2.00;;;;;;;;;;4992794;28;20458;-71
2023/07/17 06:27:21;;;;;;;56.60;2.47;;;;;;;;;;4992387;28;20966;-70
2023/07/17 06:29:49;;;;;;;56.53;1.90;;;;;;;;;;4992629;28;20451;-70
2023/07/17 06:32:16;;;;;;;56.07;1.73;;;;;;;;;;4992200;28;20467;-71
2023/07/17 06:34:44;;;;;;;56.70;2.30;;;;;;;;;;4992418;28;20940;-70
2023/07/17 06:37:12;;;;;;;56.33;2.13;;;;;;;;;;4992168;28;20482;-70
2023/07/17 06:39:39;;;;;;;56.53;2.30;;;;;;;;;;4992598;28;20589;-70
2023/07/17 06:42:08;;;;;;;56.67;2.20;;;;;;;;;;4991984;28;20482;-70
2023/07/17 06:44:35;;;;;;;56.77;2.57;;;;;;;;;;4992039;28;20473;-70
2023/07/17 06:47:03;;;;;;;56.57;2.23;;;;;;;;;;4992219;28;20451;-70
2023/07/17 06:49:30;;;;;;;56.40;1.87;;;;;;;;;;4992028;28;20458;-70
2023/07/17 06:51:58;;;;;;;56.40;2.10;;;;;;;;;;4991954;28;20830;-71
2023/07/17 06:54:25;;;;;;;56.90;2.13;;;;;;;;;;4992052;28;20469;-70
2023/07/17 06:56:52;;;;;;;56.57;2.00;;;;;;;;;;4992153;28;20514;-70
2023/07/17 06:59:19;;;;;;;56.57;2.10;;;;;;;;;;4992143;28;20454;-70
2023/07/17 07:01:46;;;;;;;56.67;2.63;;;;;;;;;;4991547;28;20477;-70
2023/07/17 07:04:14;;;;;;;56.50;2.50;;;;;;;;;;4991874;28;20450;-71
2023/07/17 07:06:41;;;;;;;56.83;2.00;;;;;;;;;;4991595;28;20928;-71
2023/07/17 07:09:09;;;;;;;56.90;2.30;;;;;;;;;;4991991;28;20462;-70
2023/07/17 07:11:36;;;;;;;56.33;2.00;;;;;;;;;;4991539;28;20846;-70
2023/07/17 07:14:03;;;;;;;56.57;2.10;;;;;;;;;;4992186;28;20443;-71
2023/07/17 07:16:30;;;;;;;56.70;2.20;;;;;;;;;;4991676;28;20966;-70
2023/07/17 07:18:57;;;;;;;56.77;2.40;;;;;;;;;;4992032;28;20455;-70
2023/07/17 07:21:24;;;;;;;57.23;2.47;;;;;;;;;;4991547;28;20477;-70
2023/07/17 07:23:52;;;;;;;56.47;2.10;;;;;;;;;;4991973;28;20473;-70
2023/07/17 07:26:20;;;;;;;56.30;2.17;;;;;;;;;;4991657;28;20442;-71
2023/07/17 07:28:47;;;;;;;56.77;2.10;;;;;;;;;;4991825;28;20939;-70
2023/07/17 07:31:14;;;;;;;56.17;1.80;;;;;;;;;;4988821;28;20482;-69
2023/07/17 07:33:41;;;;;;;56.33;1.77;;;;;;;;;;4991618;28;20462;-68
2023/07/17 07:36:08;;;;;;;56.57;2.00;;;;;;;;;;4991636;28;20447;-71
2023/07/17 07:38:35;;;;;;;56.17;2.10;;;;;;;;;;4991325;28;20929;-70
2023/07/17 07:41:02;;;;;;;56.27;2.23;;;;;;;;;;4991290;28;20458;-71
2023/07/17 07:43:31;;;;;;;56.43;2.10;;;;;;;;;;4991424;28;20451;-71
2023/07/17 07:45:58;;;;;;;57.10;2.33;;;;;;;;;;4991431;28;20830;-68
2023/07/17 07:48:25;;;;;;;56.37;2.00;;;;;;;;;;4991566;28;20955;-69
2023/07/17 07:50:52;;;;;;;56.07;2.40;;;;;;;;;;4991597;28;20807;-68
2023/07/17 07:53:19;;;;;;;56.10;2.37;;;;;;;;;;4991749;28;20478;-69
2023/07/17 07:55:46;;;;;;;57.00;2.50;;;;;;;;;;4991862;28;20455;-68
2023/07/17 07:58:13;;;;;;;56.50;2.40;;;;;;;;;;4991424;28;20487;-68
2023/07/17 08:00:42;;;;;;;56.30;1.90;;;;;;;;;;4991106;28;20450;-69
2023/07/17 08:03:09;;;;;;;56.40;1.87;;;;;;;;;;4991318;28;20470;-69
2023/07/17 08:05:36;;;;;;;56.23;2.10;;;;;;;;;;4991309;28;20447;-69
2023/07/17 08:08:03;;;;;;;56.67;1.90;;;;;;;;;;4991777;28;20447;-69
2023/07/17 08:10:30;;;;;;;56.50;2.30;;;;;;;;;;4990892;28;20981;-69
2023/07/17 08:12:59;;;;;;;57.37;2.30;;;;;;;;;;4991113;28;20844;-69
2023/07/17 08:15:26;;;;;;;56.23;2.23;;;;;;;;;;4989160;28;20455;-69
2023/07/17 08:17:54;;;;;;;56.80;2.40;;;;;;;;;;4994073;28;20858;-69
2023/07/17 08:20:21;;;;;;;56.20;1.83;;;;;;;;;;4994461;28;20461;-69
2023/07/17 08:22:54;;;;;;;56.27;1.70;;;;;;;;;;4994908;28;20477;-69
2023/07/17 08:25:22;;;;;;;57.73;2.40;;;;;;;;;;4994416;28;20962;-69
2023/07/17 08:27:49;;;;;;;56.70;2.70;;;;;;;;;;4994737;28;20447;-69
2023/07/17 08:30:16;;;;;;;56.07;2.00;;;;;;;;;;4994316;28;20947;-69
2023/07/17 08:32:43;;;;;;;56.70;2.27;;;;;;;;;;4994783;28;20466;-70
2023/07/17 08:35:12;;;;;;;57.93;2.13;;;;;;;;;;4994675;28;20458;-69
2023/07/17 08:37:39;;;;;;;56.90;1.90;;;;;;;;;;4994292;28;20924;-69
2023/07/17 08:40:07;;;;;;;56.27;2.20;;;;;;;;;;4994198;28;20450;-69
2023/07/17 08:42:35;;;;;;;56.50;1.83;;;;;;;;;;4994438;28;20482;-69
2023/07/17 08:45:03;;;;;;;56.77;2.23;;;;;;;;;;4994298;28;20462;-69
2023/07/17 08:47:30;;;;;;;56.60;2.10;;;;;;;;;;4994225;28;20947;-69
2023/07/17 08:49:58;;;;;;;56.60;2.30;;;;;;;;;;4994460;28;20755;-69
2023/07/17 08:52:28;;;;;;;57.80;3.27;;;;;;;;;;4994030;28;20471;-69
2023/07/17 08:54:55;;;;;;;60.87;3.10;;;;;;;;;;4994731;28;20458;-69
2023/07/17 08:57:23;;;;;;;56.87;2.90;;;;;;;;;;4994172;28;20839;-70
2023/07/17 08:59:51;;;;;;;56.27;2.07;;;;;;;;;;4991673;28;21114;-70
2023/07/17 09:02:19;;;;;;;56.30;2.00;;;;;;;;;;4992756;28;20479;-70
2023/07/17 09:04:46;;;;;;;57.33;2.60;;;;;;;;;;4993253;28;20462;-69
2023/07/17 09:07:13;;;;;;;57.10;2.83;;;;;;;;;;4993268;28;20459;-69
2023/07/17 09:09:42;;;;;;;56.80;2.43;;;;;;;;;;4994091;28;20458;-70
2023/07/17 09:12:10;;;;;;;56.50;2.20;;;;;;;;;;4993695;28;20849;-70
2023/07/17 09:14:37;;;;;;;56.90;2.00;;;;;;;;;;4993969;28;20482;-70
2023/07/17 09:17:07;;;;;;;57.10;2.40;;;;;;;;;;4993722;28;20451;-70
2023/07/17 09:19:35;;;;;;;56.27;1.90;;;;;;;;;;4993766;28;20487;-70
2023/07/17 09:22:03;;;;;;;56.80;2.10;;;;;;;;;;4993417;28;20475;-70
2023/07/17 09:24:30;;;;;;;56.47;2.30;;;;;;;;;;4993874;28;20461;-70
2023/07/17 09:26:58;;;;;;;56.27;1.80;;;;;;;;;;4993790;28;20455;-70
2023/07/17 09:29:26;;;;;;;64.23;2.43;;;;;;;;;;4993082;28;20451;-70
2023/07/17 09:31:54;;;;;;;56.30;1.80;;;;;;;;;;4988570;28;20483;-70
2023/07/17 09:34:21;;;;;;;56.53;1.80;;;;;;;;;;4993279;28;20475;-70
2023/07/17 09:36:51;;;;;;;56.50;1.93;;;;;;;;;;4993391;28;20490;-70
2023/07/17 09:39:18;;;;;;;56.27;1.90;;;;;;;;;;4993383;28;20522;-70
2023/07/17 09:41:45;;;;;;;56.00;1.60;;;;;;;;;;4993109;28;20467;-70
2023/07/17 09:44:18;;;;;;;56.40;2.00;;;;;;;;;;4993206;28;20465;-70
2023/07/17 09:46:46;;;;;;;57.67;2.73;;;;;;;;;;4993423;28;20431;-70
2023/07/17 09:49:13;;;;;;;56.30;1.93;;;;;;;;;;4993195;28;20935;-70
2023/07/17 09:51:41;;;;;;;56.27;1.70;;;;;;;;;;4993080;28;20471;-70
2023/07/17 09:54:08;;;;;;;56.20;1.80;;;;;;;;;;4993142;28;20457;-70
2023/07/17 09:56:35;;;;;;;57.53;3.47;;;;;;;;;;4993327;28;20487;-70
2023/07/17 09:59:08;;;;;;;56.10;1.77;;;;;;;;;;4992902;28;20481;-70
2023/07/17 10:01:38;;;;;;;56.30;1.90;;;;;;;;;;4993124;28;20485;-71
2023/07/17 10:04:07;;;;;;;56.20;1.70;;;;;;;;;;4993140;28;20455;-70
2023/07/17 10:06:35;;;;;;;56.40;2.30;;;;;;;;;;4992722;28;20458;-70
2023/07/17 10:09:05;;;;;;;56.40;2.23;;;;;;;;;;4992813;28;20493;-70
2023/07/17 10:11:32;;;;;;;56.93;2.33;;;;;;;;;;4992484;28;20471;-70
2023/07/17 10:13:59;;;;;;;56.10;1.60;;;;;;;;;;4992941;28;20458;-70
2023/07/17 10:16:26;;;;;;;56.40;2.20;;;;;;;;;;4992854;28;20457;-70
2023/07/17 10:18:56;;;;;;;56.60;2.37;;;;;;;;;;4992782;28;20854;-71
2023/07/17 10:21:24;;;;;;;55.93;1.67;;;;;;;;;;4992287;28;20475;-70
2023/07/17 10:23:52;;;;;;;56.27;2.17;;;;;;;;;;4992622;28;20447;-70
2023/07/17 10:26:20;;;;;;;56.30;1.90;;;;;;;;;;4992446;28;20453;-71
2023/07/17 10:28:49;;;;;;;56.40;2.00;;;;;;;;;;4992630;28;20448;-71
2023/07/17 10:31:19;;;;;;;56.97;2.33;;;;;;;;;;4992099;28;20473;-71
2023/07/17 10:33:48;;;;;;;55.97;1.70;;;;;;;;;;4992612;28;20497;-71
2023/07/17 10:36:17;;;;;;;56.30;2.00;;;;;;;;;;4992015;28;20455;-71
2023/07/17 10:38:49;;;;;;;57.47;2.97;;;;;;;;;;4992090;28;20487;-70
2023/07/17 10:41:26;;;;;;;56.47;2.10;;;;;;;;;;4991196;28;20467;-71
2023/07/17 10:43:54;;;;;;;55.77;1.80;;;;;;;;;;4992306;28;20462;-71
2023/07/17 10:46:26;;;;;;;56.93;2.30;;;;;;;;;;4992127;28;20462;-71
2023/07/17 10:48:53;;;;;;;56.10;1.97;;;;;;;;;;4992106;28;20939;-71
2023/07/17 10:51:26;;;;;;;55.57;1.70;;;;;;;;;;4991545;28;20475;-71
2023/07/17 10:53:55;;;;;;;55.53;1.80;;;;;;;;;;4992265;28;20478;-71
2023/07/17 10:56:22;;;;;;;55.90;2.07;;;;;;;;;;4992012;28;20455;-71
2023/07/17 10:58:50;;;;;;;56.20;2.50;;;;;;;;;;4992096;28;20509;-71
2023/07/17 11:01:17;;;;;;;55.57;1.80;;;;;;;;;;4991622;28;20478;-71
2023/07/17 11:03:44;;;;;;;55.47;1.93;;;;;;;;;;4991825;28;20443;-71
2023/07/17 11:06:11;;;;;;;56.07;1.90;;;;;;;;;;4991920;28;20477;-69
2023/07/17 11:08:40;;;;;;;55.57;2.30;;;;;;;;;;4991735;28;20451;-72
2023/07/17 11:11:09;;;;;;;55.67;2.10;;;;;;;;;;4991565;28;20542;-72
2023/07/17 11:13:36;;;;;;;56.00;2.00;;;;;;;;;;4991887;28;20457;-72
2023/07/17 11:16:07;;;;;;;55.03;1.90;;;;;;;;;;4991637;28;20443;-72
2023/07/17 11:18:34;;;;;;;55.80;2.40;;;;;;;;;;4991870;28;20505;-72
2023/07/17 11:21:01;;;;;;;56.13;2.73;;;;;;;;;;4991549;28;20454;-71
2023/07/17 11:23:28;;;;;;;55.20;2.00;;;;;;;;;;4991544;28;20493;-71
2023/07/17 11:25:57;;;;;;;55.00;1.97;;;;;;;;;;4991608;28;20462;-72
2023/07/17 11:28:24;;;;;;;55.20;2.13;;;;;;;;;;4991744;28;20447;-72
2023/07/17 11:30:51;;;;;;;55.07;2.20;;;;;;;;;;4990183;28;20455;-71
2023/07/17 11:33:18;;;;;;;55.57;2.17;;;;;;;;;;4987716;28;20454;-72
2023/07/17 11:35:46;;;;;;;55.83;2.40;;;;;;;;;;4991400;28;20461;-71
2023/07/17 11:38:14;;;;;;;55.03;2.37;;;;;;;;;;4991508;28;20534;-72
2023/07/17 11:40:54;;;;;;;54.80;1.70;;;;;;;;;;4991133;28;20561;-71
2023/07/17 11:43:27;;;;;;;54.90;2.20;;;;;;;;;;4991358;28;20483;-72
2023/07/17 11:45:56;;;;;;;55.20;2.10;;;;;;;;;;4991664;28;20455;-71
2023/07/17 11:48:23;;;;;;;54.90;2.10;;;;;;;;;;4991566;28;20458;-71
2023/07/17 11:50:50;;;;;;;54.87;2.03;;;;;;;;;;4991283;28;20450;-71
2023/07/17 11:53:18;;;;;;;54.93;2.10;;;;;;;;;;4995361;28;20835;-72
2023/07/17 11:55:45;;;;;;;54.70;1.70;;;;;;;;;;4995189;28;20943;-72
2023/07/17 11:58:16;;;;;;;55.33;2.17;;;;;;;;;;4995369;28;20461;-72
2023/07/17 12:00:46;;;;;;;55.23;2.53;;;;;;;;;;4995112;28;20477;-71
2023/07/17 12:03:13;;;;;;;55.93;3.50;;;;;;;;;;4995084;28;21082;-72
2023/07/17 12:05:40;;;;;;;55.33;2.80;;;;;;;;;;4995106;28;20443;-72
2023/07/17 12:08:07;;;;;;;54.90;1.90;;;;;;;;;;4994680;28;20455;-71
2023/07/17 12:10:35;;;;;;;54.80;1.90;;;;;;;;;;4994664;28;20457;-72
2023/07/17 12:13:02;;;;;;;55.40;3.37;;;;;;;;;;4995128;28;20473;-71
2023/07/17 12:15:30;;;;;;;55.20;2.67;;;;;;;;;;4994777;28;20451;-72
2023/07/17 12:17:58;;;;;;;55.07;1.87;;;;;;;;;;4994899;28;20464;-72
2023/07/17 12:20:26;;;;;;;54.37;1.80;;;;;;;;;;4994540;28;21024;-72
2023/07/17 12:22:54;;;;;;;55.60;2.80;;;;;;;;;;4994705;28;20501;-72
2023/07/17 12:25:21;;;;;;;55.30;2.37;;;;;;;;;;4994833;28;20447;-72
2023/07/17 12:27:48;;;;;;;54.30;1.80;;;;;;;;;;4994633;28;20451;-71
2023/07/17 12:30:16;;;;;;;54.47;1.60;;;;;;;;;;4994610;28;20447;-72
2023/07/17 12:32:44;;;;;;;54.70;1.97;;;;;;;;;;4994593;28;20521;-69
2023/07/17 12:35:12;;;;;;;55.80;2.10;;;;;;;;;;4994140;28;20454;-72
2023/07/17 12:37:39;;;;;;;55.40;2.47;;;;;;;;;;4994280;28;20454;-71
2023/07/17 12:40:07;;;;;;;56.90;2.43;;;;;;;;;;4994500;28;20492;-71
2023/07/17 12:42:34;;;;;;;56.67;2.47;;;;;;;;;;4994503;28;20471;-72
2023/07/17 12:45:01;;;;;;;57.37;2.40;;;;;;;;;;4994270;28;20473;-71
2023/07/17 12:47:29;;;;;;;55.87;1.93;;;;;;;;;;4994259;28;20466;-69
2023/07/17 12:49:57;;;;;;;56.10;2.00;;;;;;;;;;4994107;28;20451;-69
2023/07/17 12:52:26;;;;;;;56.17;1.83;;;;;;;;;;4994171;28;20519;-71
2023/07/17 12:54:53;;;;;;;56.00;1.70;;;;;;;;;;4994198;28;20947;-70
2023/07/17 12:57:20;;;;;;;56.87;2.13;;;;;;;;;;4994228;28;20501;-71
2023/07/17 12:59:47;;;;;;;56.10;2.20;;;;;;;;;;4993940;28;21006;-70
2023/07/17 13:02:14;;;;;;;55.80;1.73;;;;;;;;;;4993384;28;20475;-70
2023/07/17 13:04:42;;;;;;;56.10;2.53;;;;;;;;;;4993807;28;20527;-70
2023/07/17 13:07:09;;;;;;;55.47;1.70;;;;;;;;;;4994147;28;20461;-70
2023/07/17 13:09:37;;;;;;;55.80;1.90;;;;;;;;;;4994060;28;20456;-70
2023/07/17 13:12:05;;;;;;;58.07;2.37;;;;;;;;;;4993520;28;21002;-70
2023/07/17 13:14:32;;;;;;;55.57;2.10;;;;;;;;;;4993943;28;20461;-70
2023/07/17 13:17:00;;;;;;;55.80;1.83;;;;;;;;;;4993569;28;20512;-69
2023/07/17 13:19:27;;;;;;;56.10;1.87;;;;;;;;;;4993667;28;20487;-70
2023/07/17 13:21:54;;;;;;;56.10;2.30;;;;;;;;;;4993611;28;20474;-70
2023/07/17 13:24:23;;;;;;;56.07;1.83;;;;;;;;;;4993871;28;20447;-71
2023/07/17 13:26:51;;;;;;;55.47;1.70;;;;;;;;;;4993498;28;20998;-71
2023/07/17 13:29:18;;;;;;;56.10;1.90;;;;;;;;;;4993670;28;20451;-72
2023/07/17 13:31:45;;;;;;;56.10;1.90;;;;;;;;;;4993144;28;20478;-73
2023/07/17 13:34:12;;;;;;;56.60;2.00;;;;;;;;;;4993608;28;20939;-70
2023/07/17 13:36:40;;;;;;;56.50;2.50;;;;;;;;;;4993317;28;20457;-70
2023/07/17 13:39:07;;;;;;;55.80;1.57;;;;;;;;;;4993586;28;20517;-70
2023/07/17 13:41:42;;;;;;;56.43;2.60;;;;;;;;;;4993194;28;20533;-70
2023/07/17 13:44:11;;;;;;;57.60;2.67;;;;;;;;;;4992993;28;20496;-72
2023/07/17 13:46:38;;;;;;;57.43;2.43;;;;;;;;;;4993166;28;20987;-70
2023/07/17 13:49:05;;;;;;;56.80;2.30;;;;;;;;;;4993381;28;20772;-69
2023/07/17 13:51:33;;;;;;;56.50;2.33;;;;;;;;;;4992933;28;20547;-70
2023/07/17 13:54:00;;;;;;;56.13;1.80;;;;;;;;;;4993124;28;20454;-70
2023/07/17 13:56:27;;;;;;;56.70;2.70;;;;;;;;;;4992629;28;21064;-69
2023/07/17 13:58:54;;;;;;;56.47;2.03;;;;;;;;;;4992810;28;20457;-70
2023/07/17 14:01:23;;;;;;;56.60;2.13;;;;;;;;;;4992819;28;20500;-70
2023/07/17 14:03:50;;;;;;;56.97;2.10;;;;;;;;;;4992874;28;21031;-70
2023/07/17 14:06:18;;;;;;;56.33;1.80;;;;;;;;;;4993005;28;20454;-70
2023/07/17 14:08:45;;;;;;;56.60;2.20;;;;;;;;;;4992495;28;20936;-70
2023/07/17 14:11:13;;;;;;;56.97;2.70;;;;;;;;;;4992066;28;20468;-70
2023/07/17 14:13:40;;;;;;;56.13;1.90;;;;;;;;;;4992839;28;20827;-70
2023/07/17 14:16:08;;;;;;;56.50;1.90;;;;;;;;;;4991573;28;20944;-71
2023/07/17 14:18:38;;;;;;;57.80;3.30;;;;;;;;;;4992278;28;20606;-71
2023/07/17 14:21:05;;;;;;;56.70;2.33;;;;;;;;;;4992174;28;20545;-71
2023/07/17 14:23:32;;;;;;;56.07;1.73;;;;;;;;;;4992489;28;20459;-71
2023/07/17 14:25:59;;;;;;;56.27;1.93;;;;;;;;;;4992452;28;20455;-71
2023/07/17 14:28:26;;;;;;;56.30;2.10;;;;;;;;;;4992466;28;20463;-71
2023/07/17 14:30:54;;;;;;;56.30;1.87;;;;;;;;;;4992458;28;20442;-70
2023/07/17 14:33:21;;;;;;;56.70;2.13;;;;;;;;;;4992359;28;21304;-71